Whitleys Peak, Santa Catalina Island Weather observations

Data are for 10 minute period ending at time listed.
 Day   Time   Solar   Ave.   Ave.  Ave.  Vector    Max.   Stn.    Total
  of    of     Rad.   Air    Rel.  Wind   Wind     Wind   Baro.  Precip.
Year   Day            Temp.  Hum.  Speed  Dir.     Gust   Pres.         
2014   (PST)   W/m2    F      %     mph   deg.      mph    mb.     in.  
------------------------------------------------------------------------
 232    7:40  164.0    64   80.8     7    125.1    14.3    999.0   0.00  
 232    7:50  177.0    64   80.4     7    120.5    11.3    999.0   0.00  
 232    8:00  200.0    65   79.6     7    114.6    11.3    999.0   0.00  
 232    8:10  217.0    65   79.8     7     97.6    10.8    999.0   0.00  
 232    8:20  267.0    65   79.8     8     81.8    13.1    999.0   0.00  
 232    8:30  236.0    66   78.0     7     92.5    10.2    999.0   0.00  
 232    8:40  432.0    67   76.0     8     81.9    11.3    999.0   0.00  
 232    8:50  515.0    69   73.1     7     78.2    11.3    999.0   0.00  
 232    9:00  477.0    69   72.0     7     58.7    10.8    999.0   0.00  
 232    9:10  744.0    71   69.9     9     64.8    13.7    999.0   0.00  
 232    9:20  688.0    69   72.5    11     83.4    14.9    999.0   0.00  
 232    9:30  665.0    68   73.9    12     86.8    16.1    999.0   0.00  
 232    9:40  671.0    69   72.6    12     84.5    15.5    999.0   0.00  
 232    9:50  695.0    70   70.8    11     85.6    15.5    999.0   0.00  
 232   10:00  712.0    69   70.6    11     83.8    16.1    999.0   0.00  
 232   10:10  724.0    69   71.2    14     88.4    18.5    999.0   0.00  
 232   10:20  739.0    68   72.8    12     84.6    16.7    999.0   0.00  
 232   10:30  753.0    68   71.8    10     86.2    13.7    999.0   0.00  
 232   10:40  768.0    69   70.6    11     90.0    14.9    999.0   0.00  
 232   10:50  783.0    70   69.8    10     84.0    13.7    999.0   0.00  
 232   11:00  795.0    70   69.9    11     83.9    15.5    999.0   0.00  
 232   11:10  806.0    68   72.1    12     82.0    15.5    999.0   0.00  
 232   11:20  814.0    69   71.4    12     86.1    16.1    999.0   0.00  
 232   11:30  822.0    70   70.6    11     86.2    14.9    999.0   0.00  
 232   11:40  827.0    69   72.0    11     91.5    14.9    999.0   0.00  
 232   11:50  830.0    70   70.6    11     87.9    14.3    999.0   0.00  
 232   12:00  836.0    69   71.8    10     86.2    14.3    999.0   0.00  
 232   12:10  837.0    72   67.2     8     59.8    11.9    999.0   0.00  
 232   12:20  837.0    72   65.8     7     41.2    10.8    999.0   0.00  
 232   12:30  834.0    72   66.3     7     47.4    11.3    999.0   0.00  
 232   12:40  831.0    72   66.7     9     60.8    12.5    999.0   0.00  
 232   12:50  826.0    72   67.9     9     65.2    11.9    999.0   0.00  
 232   13:00  818.0    69   72.1    10     76.7    13.7    999.0   0.00  
 232   13:10  811.0    69   72.8     8     73.7    12.5    999.0   0.00  
 232   13:20  802.0    69   72.4     7     63.0    10.8    999.0   0.00  
 232   13:30  793.0    69   72.1     6     13.0     9.0    999.0   0.00  
 232   13:40  781.0    72   67.6     6     31.8    10.2    999.0   0.00  
 232   13:50  766.0    72   65.8     6     55.6     9.0    999.0   0.00  
 232   14:00  751.0    71   67.6     6     43.5     9.0    999.0   0.00  
 232   14:10  735.0    71   68.9     6     24.0    10.2    999.0   0.00  
 232   14:20  717.0    70   69.2     6     27.2    10.2    999.0   0.00  
 232   14:30  696.0    70   70.1     6     17.2    10.8    999.0   0.00  
 232   14:40  675.0    69   70.8     7     10.2    13.1    999.0   0.00  
 232   14:50  652.0    69   71.9     6      1.5    11.3    999.0   0.00  
 232   15:00  628.0    68   75.3     6      7.7     9.6    999.0   0.00  
 232   15:10  603.0    68   76.4     8     22.5    13.1    999.0   0.00  
 232   15:20  575.0    68   77.2     7     25.7    10.8    999.0   0.00  
 232   15:30  549.0    69   77.1     5     34.5     9.0    999.0   0.00  
 232   15:40  522.0    70   76.0     5     49.9     7.8    999.0   0.00  
 232   15:50  491.0    68   78.6     4     84.3     7.8    999.0   0.00  
 232   16:00  461.0    67   81.2     6     85.4     9.0    999.0   0.00  
 232   16:10  356.0    66   84.0     7     90.1    10.2    999.0   0.00  
 232   16:20  401.0    67   83.4     6    115.7    11.3    999.0   0.00  
 232   16:30  373.0    69   77.8     4    201.0    10.2    999.0   0.00  
 232   16:40  343.0    69   75.8     7    251.8    12.5    999.0   0.00  
 232   16:50  310.0    68   77.7     8    243.9    12.5    999.0   0.00  
 232   17:00  278.0    67   79.9    10    242.8    13.1    999.0   0.00  
 232   17:10  245.0    67   79.9     9    245.6    13.1    999.0   0.00  
 232   17:20  213.0    66   81.2     9    235.5    11.9    999.0   0.00  
 232   17:30  181.0    65   81.7    10    236.1    13.1    999.0   0.00  
 232   17:40  149.0    65   82.9    10    229.9    13.1    999.0   0.00  
 232   17:50  118.0    64   84.0    12    231.2    14.9    999.0   0.00  
 232   18:00   91.0    64   85.1    13    229.6    15.5    999.0   0.00  
 232   18:10   63.0    63   86.7    14    226.3    17.3    999.0   0.00  
 232   18:20   24.0    62   88.7    13    220.8    16.1    999.0   0.00  
 232   18:30   11.0    61   89.7    13    220.1    15.5    999.0   0.00  
 232   18:40    6.0    61   90.2    13    217.9    16.1    999.0   0.00  
 232   18:50    0.0    61   90.5    15    213.6    17.3    999.0   0.00  
 232   19:00    0.0    61   91.5    13    211.9    16.1    999.0   0.00  
 232   19:10    0.0    60   92.1    12    211.5    14.3    999.0   0.00  
 232   19:20    0.0    60   92.4    12    214.0    13.7    999.0   0.00  
 232   19:30    0.0    60   92.6    11    208.8    14.9    999.0   0.00  
 232   19:40    0.0    60   92.4    11    205.1    14.3    999.0   0.00  
 232   19:50    0.0    60   92.1    10    207.5    11.9    999.0   0.00  
 232   20:00    0.0    60   92.1    10    205.8    11.3    999.0   0.00  
 232   20:10    0.0    59   92.4     9    200.1    11.3    999.0   0.00  
 232   20:20    0.0    59   92.5    10    202.6    11.3    999.0   0.00  
 232   20:30    0.0    60   92.8    10    207.4    11.3    999.0   0.00  
 232   20:40    0.0    59   93.0    10    202.4    11.9    999.0   0.00  
 232   20:50    0.0    59   93.4    11    204.8    12.5    999.0   0.00  
 232   21:00    0.0    59   93.5    11    210.4    12.5    999.0   0.00  
 232   21:10    0.0    59   93.6    10    206.5    10.8    999.0   0.00  
 232   21:20    0.0    59   93.7     8    211.9    10.2    999.0   0.00  
 232   21:30    0.0    60   93.0     8    212.1    10.8    999.0   0.00  
 232   21:40    0.0    59   93.6     8    207.7     9.6    999.0   0.00  
 232   21:50    0.0    59   94.2     8    210.1     9.6    999.0   0.00  
 232   22:00    0.0    59   94.1     8    215.9     9.0    999.0   0.00  
 232   22:10    0.0    59   94.1    10    214.7    12.5    999.0   0.00  
 232   22:20    0.0    60   93.8     9    214.6    12.5    999.0   0.00  
 232   22:30    0.0    59   94.2     7    197.1     9.6    999.0   0.00  
 232   22:40    0.0    59   94.6     6    194.2     7.2    999.0   0.00  
 232   22:50    0.0    59   94.7     7    180.4     7.8    999.0   0.00  
 232   23:00    0.0    59   94.9     7    179.3     7.2    999.0   0.00  
 232   23:10    0.0    59   95.0     6    176.6     7.8    999.0   0.00  
 232   23:20    0.0    59   95.1     8    186.0     9.0    999.0   0.00  
 232   23:30    0.0    59   95.3     8    178.4     9.6    999.0   0.00  
 232   23:40    0.0    59   95.3     9    183.0     9.6    999.0   0.00  
 232   23:50    0.0    59   95.5     9    191.6    10.2    999.0   0.00  
 233    0:00    0.0    59   95.6     8    197.1    10.2    999.0   0.00  
 233    0:10    0.0    59   95.8     9    193.0    10.2    999.0   0.00  
 233    0:20    0.0    59   95.9     9    198.7    11.3    999.0   0.00  
 233    0:30    0.0    59   95.9    10    201.3    11.9    999.0   0.00  
 233    0:40    0.0    59   96.0    10    198.4    11.9    999.0   0.00  
 233    0:50    0.0    59   96.1    10    199.5    12.5    999.0   0.00  
 233    1:00    0.0    59   96.2    10    199.5    11.9    999.0   0.00  
 233    1:10    0.0    59   96.3     9    194.4    11.3    999.0   0.00  
 233    1:20    0.0    59   96.4     9    197.1    10.8    999.0   0.00  
 233    1:30    0.0    59   96.4     9    199.8    10.8    999.0   0.00  
 233    1:40    0.0    59   96.4     8    196.4     9.6    999.0   0.00  
 233    1:50    0.0    59   96.5     8    197.9    10.2    999.0   0.00  
 233    2:00    0.0    58   96.5     7    185.6     9.0    999.0   0.00  
 233    2:10    0.0    59   96.6     7    181.9     9.0    999.0   0.00  
 233    2:20    0.0    59   96.6     5    165.6     7.2    999.0   0.00  
 233    2:30    0.0    59   96.6     4    162.6     6.0    999.0   0.00  
 233    2:40    0.0    59   96.7     5    123.8     6.6    999.0   0.00  
 233    2:50    0.0    59   96.7     6    116.8     7.2    999.0   0.00  
 233    3:00    0.0    59   96.7     6    117.5     7.2    999.0   0.00  
 233    3:10    0.0    59   96.7     6    112.9     7.2    999.0   0.00  
 233    3:20    0.0    59   96.6     4    137.6     5.4    999.0   0.00  
 233    3:30    0.0    59   96.5     4    138.6     4.8    999.0   0.00  
 233    3:40    0.0    59   96.4     5    156.9     6.6    999.0   0.00  
 233    3:50    0.0    59   96.3     6    171.1     8.4    999.0   0.00  
 233    4:00    0.0    59   96.4     6    171.9     7.8    999.0   0.00  
 233    4:10    0.0    59   96.4     5    168.6     7.2    999.0   0.00  
 233    4:20    0.0    59   96.3     6    177.4     7.2    999.0   0.00  
 233    4:30    0.0    59   96.2     6    183.4     7.2    999.0   0.00  
 233    4:40    0.0    59   96.1     6    193.8     8.4    999.0   0.00  
 233    4:50    0.0    59   96.1     6    197.3     8.4    999.0   0.00  
 233    5:00    0.0    59   96.2     7    198.1     9.0    999.0   0.00  
 233    5:10    0.0    59   96.2     7    196.7     9.0    999.0   0.00  
 233    5:20    1.0    59   96.2     8    202.2     9.6    999.0   0.00  
 233    5:30    6.0    59   96.3     7    204.0     9.6    999.0   0.00  
 233    5:40    8.0    59   96.3     7    203.7     9.0    999.0   0.00  
 233    5:50   18.0    59   96.3     6    201.3     8.4    999.0   0.00  
 233    6:00   21.0    59   96.3     6    200.7     7.2    999.0   0.00  
 233    6:10   28.0    59   96.2     5    204.4     7.2    999.0   0.00  
 233    6:20   39.0    59   96.1     3    193.4     4.8    999.0   0.00  
 233    6:30   52.0    60   95.9     1    159.2     4.2    999.0   0.00  
 233    6:40   54.0    60   95.6     0    235.1     1.8    999.0   0.00  
 233    6:50   62.0    61   95.0     2     41.3     6.6    999.0   0.00  
 233    7:00   66.0    61   94.1     1    102.5     3.6    999.0   0.00  
 233    7:10   80.0    61   93.2     1    116.3     3.0    999.0   0.00  
 233    7:20  115.0    62   92.1     2    104.8     5.4    999.0   0.00  
 233    7:30  137.0    63   91.1     2     99.4     4.2    999.0   0.00  

Return to Whitleys Peak graphs page.


Western Regional Climate Center,wrcc@dri.edu